createdAt,value
2023-03-16T00:01:19.153Z,100473.60
2023-03-16T00:06:25.537Z,100477.40
2023-03-16T00:11:29.569Z,100482.60
2023-03-16T00:16:33.643Z,100482.20
2023-03-16T00:21:37.411Z,100480.80
2023-03-16T00:26:42.690Z,100476.20
2023-03-16T00:31:46.319Z,100479.20
2023-03-16T00:36:50.173Z,100479.60
2023-03-16T00:41:58.652Z,100485.40
2023-03-16T00:47:02.863Z,100482.60
2023-03-16T00:52:08.010Z,100481.40
2023-03-16T00:57:14.885Z,100483.60
2023-03-16T01:02:23.798Z,100475.20
2023-03-16T01:07:27.224Z,100473.60
2023-03-16T01:12:30.837Z,100472.00
2023-03-16T01:17:35.432Z,100477.40
2023-03-16T01:22:39.301Z,100477.20
2023-03-16T01:27:45.498Z,100482.20
2023-03-16T01:32:49.150Z,100484.80
2023-03-16T01:37:52.829Z,100491.20
2023-03-16T01:43:04.722Z,100486.60
2023-03-16T01:48:08.884Z,100489.60
2023-03-16T01:53:12.846Z,100486.60
2023-03-16T01:58:17.701Z,100491.20
2023-03-16T02:03:23.170Z,100490.00
2023-03-16T02:08:28.272Z,100493.80
2023-03-16T02:13:37.026Z,100486.20
2023-03-16T02:18:41.501Z,100488.60
2023-03-16T02:23:47.294Z,100495.80
2023-03-16T02:29:26.290Z,100501.60
2023-03-16T02:34:30.763Z,100504.60
2023-03-16T02:39:34.777Z,100505.40
2023-03-16T02:44:42.161Z,100513.00
2023-03-16T02:49:46.303Z,100513.20
2023-03-16T02:54:49.924Z,100518.40
2023-03-16T02:59:53.744Z,100533.00
2023-03-16T03:04:57.482Z,100531.60
2023-03-16T03:10:04.974Z,100531.40
2023-03-16T03:15:10.548Z,100536.20
2023-03-16T03:20:16.634Z,100535.60
2023-03-16T03:25:22.587Z,100542.20
2023-03-16T03:30:28.198Z,100536.80
2023-03-16T03:35:32.208Z,100537.80
2023-03-16T03:40:36.058Z,100542.40
2023-03-16T03:45:39.842Z,100547.80
2023-03-16T03:50:43.880Z,100551.40
2023-03-16T03:55:49.755Z,100555.60
2023-03-16T04:00:53.498Z,100554.80
2023-03-16T04:05:57.210Z,100550.60
2023-03-16T04:11:01.345Z,100559.20
2023-03-16T04:16:05.744Z,100554.20
2023-03-16T04:21:17.376Z,100556.20
2023-03-16T04:26:22.888Z,100556.00
2023-03-16T04:31:26.668Z,100557.60
2023-03-16T04:36:30.501Z,100560.40
2023-03-16T04:41:34.321Z,100562.20
2023-03-16T04:46:38.179Z,100564.00
2023-03-16T04:51:42.912Z,100560.60
2023-03-16T04:56:46.591Z,100559.40
2023-03-16T05:01:50.717Z,100563.80
2023-03-16T05:06:54.553Z,100565.00
2023-03-16T05:11:58.891Z,100565.00
2023-03-16T05:17:04.132Z,100562.00
2023-03-16T05:22:08.275Z,100568.00
2023-03-16T05:27:11.966Z,100562.20
2023-03-16T05:32:18.658Z,100554.60
2023-03-16T05:37:24.538Z,100565.20
2023-03-16T05:42:28.525Z,100578.40
2023-03-16T05:47:32.880Z,100577.00
2023-03-16T05:52:36.760Z,100582.40
2023-03-16T05:57:43.130Z,100581.80
2023-03-16T06:02:51.702Z,100595.20
2023-03-16T06:07:55.400Z,100587.40
2023-03-16T06:12:59.970Z,100593.00
2023-03-16T06:18:03.815Z,100589.60
2023-03-16T06:23:07.637Z,100596.60
2023-03-16T06:28:11.572Z,100598.40
2023-03-16T06:33:15.345Z,100602.20
2023-03-16T06:38:21.300Z,100611.40
2023-03-16T06:43:25.306Z,100610.20
2023-03-16T06:48:30.390Z,100616.60
2023-03-16T06:53:34.347Z,100609.60
2023-03-16T06:58:38.118Z,100615.80
2023-03-16T07:03:42.452Z,100613.60
2023-03-16T07:08:46.895Z,100624.40
2023-03-16T07:13:52.245Z,100630.40
2023-03-16T07:18:56.598Z,100634.40
2023-03-16T07:24:01.970Z,100636.20
2023-03-16T07:29:07.821Z,100637.40
2023-03-16T07:34:19.119Z,100646.60
2023-03-16T07:39:26.827Z,100646.60
2023-03-16T07:44:40.057Z,100659.60
2023-03-16T07:49:53.332Z,100663.80
2023-03-16T07:54:58.077Z,100667.00
2023-03-16T08:00:05.691Z,100683.40
2023-03-16T08:05:13.231Z,100678.00
2023-03-16T08:10:18.834Z,100677.80
2023-03-16T08:15:23.108Z,100674.40
2023-03-16T08:20:29.238Z,100688.60
2023-03-16T08:25:34.631Z,100691.40
2023-03-16T08:30:51.481Z,100690.60
2023-03-16T08:35:59.343Z,100706.00
2023-03-16T08:41:05.386Z,100710.80
2023-03-16T08:46:12.124Z,100718.80
2023-03-16T08:51:17.938Z,100717.60
2023-03-16T08:56:22.313Z,100722.80
2023-03-16T09:01:27.075Z,100731.80
2023-03-16T09:06:33.318Z,100740.00
2023-03-16T09:11:39.498Z,100732.00
2023-03-16T09:16:44.555Z,100736.80
2023-03-16T09:21:54.215Z,100726.20
2023-03-16T09:26:58.648Z,100725.00
2023-03-16T09:32:04.526Z,100728.20
2023-03-16T09:37:11.432Z,100739.20
2023-03-16T09:42:37.908Z,100727.80
2023-03-16T09:47:45.703Z,100734.00
2023-03-16T09:53:04.885Z,100734.80
2023-03-16T09:58:22.743Z,100732.20
2023-03-16T10:04:01.057Z,100736.00
2023-03-16T10:09:34.889Z,100735.60
2023-03-16T10:15:09.024Z,100743.60
2023-03-16T10:20:21.048Z,100744.60
2023-03-16T10:25:43.808Z,100747.00
2023-03-16T10:30:53.460Z,100747.00
2023-03-16T10:36:16.155Z,100742.60
2023-03-16T10:41:29.688Z,100738.60
2023-03-16T10:46:49.688Z,100757.80
2023-03-16T10:51:59.684Z,100763.80
2023-03-16T10:57:31.545Z,100765.40
2023-03-16T11:02:36.223Z,100756.00
2023-03-16T11:07:59.628Z,100766.20
2023-03-16T11:13:15.007Z,100761.60
2023-03-16T11:18:47.975Z,100768.80
2023-03-16T11:23:58.327Z,100769.20
2023-03-16T11:29:29.206Z,100768.60
2023-03-16T11:34:35.645Z,100774.40
2023-03-16T11:40:33.625Z,100775.60
2023-03-16T11:46:05.781Z,100782.00
2023-03-16T11:51:24.977Z,100784.40
2023-03-16T11:56:36.804Z,100780.20
2023-03-16T12:02:01.566Z,100785.40
2023-03-16T12:07:50.817Z,100787.00
2023-03-16T12:13:40.450Z,100778.60
2023-03-16T12:18:56.450Z,100792.00
2023-03-16T12:24:07.250Z,100796.60
2023-03-16T12:29:34.093Z,100803.20
2023-03-16T12:35:05.879Z,100806.80
2023-03-16T12:40:35.840Z,100810.20
2023-03-16T12:45:57.978Z,100821.60
2023-03-16T12:51:05.451Z,100819.80
2023-03-16T12:56:36.731Z,100825.60
2023-03-16T13:01:46.491Z,100828.80
2023-03-16T13:07:05.384Z,100834.80
2023-03-16T13:12:11.077Z,100839.80
2023-03-16T13:17:17.424Z,100846.60
2023-03-16T13:22:30.654Z,100847.80
2023-03-16T13:27:35.753Z,100850.00
2023-03-16T13:32:42.777Z,100856.60
2023-03-16T13:37:47.503Z,100858.20
2023-03-16T13:42:56.477Z,100856.40
2023-03-16T13:48:05.806Z,100855.60
2023-03-16T13:53:23.229Z,100862.60
2023-03-16T13:58:40.396Z,100874.00
2023-03-16T14:03:45.865Z,100872.80
2023-03-16T14:14:37.844Z,100885.60
2023-03-16T14:19:55.351Z,100885.40
2023-03-16T14:25:02.467Z,100890.20
2023-03-16T14:30:26.287Z,100888.60
2023-03-16T14:35:43.683Z,100883.00
2023-03-16T14:41:04.364Z,100888.40
2023-03-16T14:46:21.632Z,100886.00
2023-03-16T14:51:26.836Z,100889.40
2023-03-16T14:56:36.018Z,100890.40
2023-03-16T15:01:39.878Z,100823.60
2023-03-16T15:06:43.770Z,100886.60
2023-03-16T15:11:47.792Z,100851.20
2023-03-16T15:16:51.828Z,100847.20
2023-03-16T15:22:07.204Z,100866.80
2023-03-16T15:27:35.055Z,100901.20
2023-03-16T15:32:41.697Z,100870.60
2023-03-16T15:37:49.855Z,100882.20
2023-03-16T15:42:57.081Z,100924.80
2023-03-16T15:48:03.878Z,100928.80
2023-03-16T15:53:32.633Z,100934.60
2023-03-16T15:58:41.142Z,100929.80
2023-03-16T16:03:45.362Z,100933.40
2023-03-16T16:08:51.287Z,100932.40
2023-03-16T16:13:59.626Z,100941.00
2023-03-16T16:19:03.640Z,100944.00
2023-03-16T16:24:08.595Z,100954.00
2023-03-16T16:29:22.229Z,100947.60
2023-03-16T16:34:27.607Z,100960.40
2023-03-16T16:39:31.416Z,100969.60
2023-03-16T16:44:37.952Z,100967.20
2023-03-16T16:49:42.162Z,100975.40
2023-03-16T16:54:46.014Z,100979.60
2023-03-16T16:59:50.164Z,100987.40
2023-03-16T17:04:54.224Z,100991.40
2023-03-16T17:09:58.093Z,100995.60
2023-03-16T17:15:02.404Z,100995.00
2023-03-16T17:20:16.848Z,100994.00
2023-03-16T17:25:21.957Z,101004.60
2023-03-16T17:30:31.282Z,101005.20
2023-03-16T17:35:35.123Z,101007.80
2023-03-16T17:40:40.722Z,101006.40
2023-03-16T17:45:50.720Z,101014.40
2023-03-16T17:50:54.822Z,101019.80
2023-03-16T17:55:58.754Z,101024.80
2023-03-16T18:01:04.736Z,101024.40
2023-03-16T18:06:19.708Z,101032.60
2023-03-16T18:11:40.349Z,101044.80
2023-03-16T18:16:45.720Z,101043.20
2023-03-16T18:21:51.814Z,101044.20
2023-03-16T18:26:57.282Z,101054.00
2023-03-16T18:32:01.979Z,101058.00
2023-03-16T18:37:11.994Z,101060.60
2023-03-16T18:42:26.673Z,101063.80
2023-03-16T18:47:32.099Z,101070.80
2023-03-16T18:52:39.551Z,101076.60
2023-03-16T18:57:44.121Z,101081.60
2023-03-16T19:03:04.915Z,101090.20
2023-03-16T19:08:15.316Z,101089.60
2023-03-16T19:13:22.064Z,101099.60
2023-03-16T19:18:26.517Z,101102.40
2023-03-16T19:23:36.893Z,101106.20
2023-03-16T19:28:46.462Z,101106.40
2023-03-16T19:33:52.301Z,101113.80
2023-03-16T19:38:56.644Z,101124.60
2023-03-16T19:44:17.360Z,101120.40
2023-03-16T19:49:26.232Z,101123.40
2023-03-16T19:54:35.520Z,101127.00
2023-03-16T19:59:39.804Z,101130.40
2023-03-16T20:04:43.660Z,101131.40
2023-03-16T20:09:48.416Z,101135.00
2023-03-16T20:14:53.984Z,101130.20
2023-03-16T20:19:58.258Z,101134.20
2023-03-16T20:25:05.691Z,101131.20
2023-03-16T20:30:20.283Z,101133.00
2023-03-16T20:35:29.384Z,101131.80
2023-03-16T20:40:35.174Z,101122.40
2023-03-16T20:45:38.902Z,101121.60
2023-03-16T20:50:42.828Z,101119.80
2023-03-16T20:55:48.086Z,101125.60
2023-03-16T21:00:57.944Z,101123.60
2023-03-16T21:06:03.485Z,101122.00
2023-03-16T21:11:30.095Z,101126.00
2023-03-16T21:16:35.085Z,101132.60
2023-03-16T21:21:38.684Z,101134.00
2023-03-16T21:26:44.711Z,101141.80
2023-03-16T21:31:58.360Z,101138.00
2023-03-16T21:37:03.879Z,101141.20
2023-03-16T21:42:09.043Z,101138.40
2023-03-16T21:47:34.348Z,101142.60
2023-03-16T21:52:41.538Z,101146.00
2023-03-16T21:57:45.781Z,101142.60
2023-03-16T22:02:53.431Z,101147.40
2023-03-16T22:07:59.931Z,101147.00
2023-03-16T22:13:04.935Z,101154.40
2023-03-16T22:18:37.181Z,101150.80
2023-03-16T22:23:41.796Z,101157.00
2023-03-16T22:28:48.974Z,101153.20
2023-03-16T22:33:52.927Z,101146.80
2023-03-16T22:39:01.979Z,101154.00
2023-03-16T22:44:05.988Z,101151.20
2023-03-16T22:49:27.637Z,101159.40
2023-03-16T22:54:31.571Z,101167.00
2023-03-16T22:59:35.837Z,101173.00
2023-03-16T23:04:40.395Z,101182.00
2023-03-16T23:09:44.380Z,101191.80
2023-03-16T23:14:47.996Z,101203.60
2023-03-16T23:19:52.331Z,101195.60
2023-03-16T23:24:55.860Z,101190.80
2023-03-16T23:29:59.597Z,101185.40
2023-03-16T23:35:24.826Z,101180.80
2023-03-16T23:40:30.758Z,101167.20
2023-03-16T23:45:46.961Z,101168.00
2023-03-16T23:50:55.390Z,101161.40
2023-03-16T23:55:59.253Z,101168.80
